createdAt,value
2023-04-02T00:05:56.182Z,7.75
2023-04-02T00:21:10.403Z,8.00
2023-04-02T00:36:16.355Z,7.94
2023-04-02T00:51:43.304Z,8.13
2023-04-02T01:06:53.708Z,8.00
2023-04-02T01:22:07.574Z,8.25
2023-04-02T01:37:34.416Z,8.00
2023-04-02T01:52:42.577Z,8.06
2023-04-02T02:07:51.565Z,8.06
2023-04-02T02:23:00.429Z,8.13
2023-04-02T02:38:24.779Z,8.13
2023-04-02T02:53:30.647Z,8.19
2023-04-02T03:08:40.692Z,8.19
2023-04-02T03:23:49.247Z,8.06
2023-04-02T03:39:01.751Z,8.19
2023-04-02T03:54:11.913Z,8.31
2023-04-02T04:09:24.839Z,8.25
2023-04-02T04:24:32.946Z,8.25
2023-04-02T04:39:44.527Z,8.25
2023-04-02T04:54:50.503Z,8.31
2023-04-02T05:10:07.538Z,8.31
2023-04-02T05:25:23.724Z,8.38
2023-04-02T05:40:34.277Z,8.56
2023-04-02T05:55:45.814Z,8.81
2023-04-02T06:11:00.818Z,8.81
2023-04-02T06:26:09.241Z,8.88
2023-04-02T06:41:21.582Z,8.81
2023-04-02T06:56:42.212Z,8.94
2023-04-02T07:11:47.861Z,9.06
2023-04-02T07:26:53.746Z,9.25
2023-04-02T07:42:00.702Z,9.50
2023-04-02T07:57:06.670Z,9.81
2023-04-02T08:12:15.433Z,10.50
2023-04-02T08:27:21.055Z,10.94
2023-04-02T08:42:35.247Z,10.69
2023-04-02T08:57:47.195Z,11.81
2023-04-02T09:12:54.730Z,12.44
2023-04-02T09:28:03.826Z,13.00
2023-04-02T09:43:15.835Z,13.13
2023-04-02T09:58:21.500Z,14.44
2023-04-02T10:13:30.532Z,14.56
2023-04-02T10:28:49.582Z,15.38
2023-04-02T10:44:24.351Z,14.94
2023-04-02T10:59:33.759Z,14.88
2023-04-02T11:14:41.247Z,14.56
2023-04-02T11:29:49.135Z,15.06
2023-04-02T11:44:55.037Z,16.31
2023-04-02T12:00:18.441Z,19.75
2023-04-02T12:15:38.615Z,16.75
2023-04-02T12:30:44.373Z,16.13
2023-04-02T12:45:54.449Z,16.44
2023-04-02T13:01:18.719Z,15.38
2023-04-02T13:16:36.216Z,15.50
2023-04-02T13:31:41.913Z,16.44
2023-04-02T13:46:47.800Z,16.56
2023-04-02T14:01:55.232Z,15.38
2023-04-02T14:17:16.157Z,15.13
2023-04-02T14:32:27.543Z,15.00
2023-04-02T14:47:38.133Z,14.69
2023-04-02T15:02:47.838Z,14.44
2023-04-02T15:17:53.388Z,14.38
2023-04-02T15:33:21.370Z,13.81
2023-04-02T15:49:11.650Z,12.88
2023-04-02T16:04:29.429Z,12.75
2023-04-02T16:19:40.020Z,12.50
2023-04-02T16:34:52.815Z,12.25
2023-04-02T16:50:04.770Z,11.94
2023-04-02T17:05:18.734Z,11.75
2023-04-02T17:20:26.665Z,11.56
2023-04-02T17:35:38.821Z,11.00
2023-04-02T17:51:06.322Z,10.75
2023-04-02T18:06:18.266Z,10.44
2023-04-02T18:21:28.933Z,10.44
2023-04-02T18:36:45.269Z,10.44
2023-04-02T18:51:55.392Z,10.31
2023-04-02T19:07:06.343Z,10.06
2023-04-02T19:22:18.204Z,9.94
2023-04-02T19:37:32.281Z,10.06
2023-04-02T19:52:38.076Z,9.94
2023-04-02T20:07:43.716Z,10.06
2023-04-02T20:22:50.055Z,10.00
2023-04-02T20:37:55.686Z,9.81
2023-04-02T20:53:02.905Z,9.63
2023-04-02T21:08:08.712Z,9.25
2023-04-02T21:23:14.312Z,9.19
2023-04-02T21:38:20.300Z,8.94
2023-04-02T21:53:26.054Z,8.88
2023-04-02T22:08:31.838Z,8.88
2023-04-02T22:23:37.800Z,8.69
2023-04-02T22:38:43.695Z,8.50
2023-04-02T22:53:50.259Z,8.25
2023-04-02T23:08:59.207Z,8.00
2023-04-02T23:24:07.929Z,7.81
2023-04-02T23:39:15.522Z,7.63
2023-04-02T23:54:21.638Z,7.56
